createdAt,value
2018-03-04T00:00:48.503Z,69.53
2018-03-04T00:03:16.844Z,65.70
2018-03-04T00:05:45.197Z,53.08
2018-03-04T00:08:13.556Z,63.60
2018-03-04T00:10:41.872Z,65.70
2018-03-04T00:13:10.338Z,67.57
2018-03-04T00:15:38.638Z,58.13
2018-03-04T00:18:06.970Z,65.20
2018-03-04T00:20:35.299Z,61.78
2018-03-04T00:23:03.608Z,66.17
2018-03-04T00:25:31.923Z,63.87
2018-03-04T00:28:00.247Z,63.10
2018-03-04T00:30:28.581Z,62.10
2018-03-04T00:32:56.923Z,69.82
2018-03-04T00:35:25.364Z,55.57
2018-03-04T00:37:53.667Z,60.80
2018-03-04T00:40:22.078Z,65.27
2018-03-04T00:42:50.408Z,64.83
2018-03-04T00:45:18.767Z,66.03
2018-03-04T00:47:47.113Z,70.80
2018-03-04T00:50:15.460Z,69.25
2018-03-04T00:52:43.784Z,67.00
2018-03-04T00:55:12.880Z,69.20
2018-03-04T00:57:42.679Z,73.03
2018-03-04T01:00:11.139Z,73.85
2018-03-04T01:02:39.451Z,71.68
2018-03-04T01:05:08.586Z,73.03
2018-03-04T01:07:36.923Z,66.20
2018-03-04T01:10:05.255Z,68.70
2018-03-04T01:12:33.593Z,71.15
2018-03-04T01:15:02.696Z,67.10
2018-03-04T01:17:31.777Z,72.68
2018-03-04T01:20:00.118Z,67.10
2018-03-04T01:22:28.670Z,68.35
2018-03-04T01:24:57.811Z,74.07
2018-03-04T01:27:26.143Z,72.03
2018-03-04T01:29:54.469Z,73.47
2018-03-04T01:32:22.984Z,64.83
2018-03-04T01:34:51.303Z,70.13
2018-03-04T01:37:20.375Z,68.47
2018-03-04T01:39:48.753Z,64.18
2018-03-04T01:42:17.073Z,63.80
2018-03-04T01:44:46.280Z,67.60
2018-03-04T01:47:14.579Z,70.50
2018-03-04T01:49:42.901Z,66.10
2018-03-04T01:52:11.215Z,66.20
2018-03-04T01:54:40.329Z,68.40
2018-03-04T01:57:08.658Z,67.70
2018-03-04T01:59:36.983Z,66.20
2018-03-04T02:02:05.327Z,63.97
2018-03-04T02:04:33.637Z,66.33
2018-03-04T02:07:01.997Z,72.47
2018-03-04T02:09:31.117Z,68.00
2018-03-04T02:12:00.191Z,60.70
2018-03-04T02:14:28.495Z,65.07
2018-03-04T02:16:57.574Z,69.87
2018-03-04T02:19:26.647Z,70.33
2018-03-04T02:21:55.245Z,67.27
2018-03-04T02:24:23.547Z,67.30
2018-03-04T02:26:52.655Z,68.27
2018-03-04T02:29:20.987Z,68.87
2018-03-04T02:31:49.308Z,68.63
2018-03-04T02:34:18.878Z,68.30
2018-03-04T02:36:47.206Z,67.37
2018-03-04T02:39:16.294Z,66.50
2018-03-04T02:41:45.813Z,65.40
2018-03-04T02:44:14.889Z,67.57
2018-03-04T02:46:43.199Z,67.53
2018-03-04T02:49:11.529Z,67.90
2018-03-04T02:51:39.852Z,68.53
2018-03-04T02:54:08.927Z,67.57
2018-03-04T02:56:37.251Z,68.60
2018-03-04T02:59:05.589Z,63.43
2018-03-04T03:01:34.696Z,66.97
2018-03-04T03:04:03.932Z,63.40
2018-03-04T03:06:32.236Z,69.13
2018-03-04T03:09:00.589Z,69.03
2018-03-04T03:11:28.899Z,66.77
2018-03-04T03:13:58.285Z,66.17
2018-03-04T03:16:26.713Z,65.30
2018-03-04T03:18:55.792Z,65.53
2018-03-04T03:21:24.375Z,66.40
2018-03-04T03:23:52.683Z,67.10
2018-03-04T03:26:21.015Z,67.60
2018-03-04T03:28:49.328Z,67.87
2018-03-04T03:31:17.666Z,64.77
2018-03-04T03:33:46.001Z,68.70
2018-03-04T03:36:14.339Z,69.80
2018-03-04T03:38:42.655Z,73.37
2018-03-04T03:41:11.001Z,69.72
2018-03-04T03:43:39.437Z,68.90
2018-03-04T03:46:09.365Z,65.53
2018-03-04T03:48:38.449Z,69.23
2018-03-04T03:51:07.561Z,69.00
2018-03-04T03:53:36.669Z,72.17
2018-03-04T03:56:04.984Z,70.83
2018-03-04T03:58:33.318Z,66.35
2018-03-04T04:01:01.647Z,71.43
2018-03-04T04:03:29.982Z,71.18
2018-03-04T04:05:59.063Z,74.03
2018-03-04T04:08:28.183Z,69.87
2018-03-04T04:10:56.501Z,70.05
2018-03-04T04:13:24.799Z,70.20
2018-03-04T04:15:53.132Z,69.93
2018-03-04T04:18:21.461Z,72.50
2018-03-04T04:20:49.785Z,67.10
2018-03-04T04:23:18.106Z,68.15
2018-03-04T04:25:46.458Z,66.37
2018-03-04T04:28:14.775Z,70.27
2018-03-04T04:30:43.099Z,69.20
2018-03-04T04:33:12.178Z,66.97
2018-03-04T04:35:40.493Z,68.63
2018-03-04T04:38:08.809Z,68.47
2018-03-04T04:40:37.154Z,64.50
2018-03-04T04:43:05.477Z,64.50
2018-03-04T04:45:33.815Z,68.27
2018-03-04T04:48:02.197Z,53.47
2018-03-04T04:50:30.537Z,68.70
2018-03-04T04:52:58.867Z,65.57
2018-03-04T04:55:27.197Z,68.07
2018-03-04T04:57:55.601Z,70.27
2018-03-04T05:00:24.700Z,69.10
2018-03-04T05:02:53.774Z,67.03
2018-03-04T05:05:22.119Z,72.57
2018-03-04T05:07:50.562Z,67.55
2018-03-04T05:10:20.448Z,68.57
2018-03-04T05:12:48.920Z,59.93
2018-03-04T05:15:17.281Z,69.30
2018-03-04T05:17:45.601Z,65.00
2018-03-04T05:20:13.909Z,70.77
2018-03-04T05:22:43.055Z,66.30
2018-03-04T05:25:11.406Z,65.23
2018-03-04T05:27:39.700Z,72.12
2018-03-04T05:30:08.043Z,69.27
2018-03-04T05:32:37.130Z,63.33
2018-03-04T05:35:05.461Z,66.60
2018-03-04T05:37:33.774Z,69.93
2018-03-04T05:40:02.105Z,66.67
2018-03-04T05:42:30.446Z,66.40
2018-03-04T05:44:58.919Z,66.50
2018-03-04T05:47:27.475Z,69.47
2018-03-04T05:49:55.784Z,67.27
2018-03-04T05:52:24.109Z,68.40
2018-03-04T05:54:52.457Z,67.67
2018-03-04T05:57:20.799Z,66.60
2018-03-04T05:59:49.146Z,70.57
2018-03-04T06:02:17.508Z,74.87
2018-03-04T06:04:46.610Z,71.53
2018-03-04T06:07:14.920Z,74.07
2018-03-04T06:09:43.246Z,72.53
2018-03-04T06:12:11.575Z,72.18
2018-03-04T06:14:39.929Z,71.97
2018-03-04T06:17:08.258Z,70.20
2018-03-04T06:19:36.600Z,71.67
2018-03-04T06:22:05.718Z,67.57
2018-03-04T06:24:34.106Z,69.80
2018-03-04T06:27:02.400Z,70.65
2018-03-04T06:29:30.751Z,70.75
2018-03-04T06:31:59.844Z,72.03
2018-03-04T06:34:28.208Z,72.00
2018-03-04T06:36:57.318Z,74.63
2018-03-04T06:39:26.509Z,69.33
2018-03-04T06:41:54.863Z,65.20
2018-03-04T06:44:27.196Z,71.20
2018-03-04T06:46:55.530Z,65.63
2018-03-04T06:49:23.857Z,64.30
2018-03-04T06:51:52.223Z,68.87
2018-03-04T06:54:21.344Z,66.00
2018-03-04T06:56:49.672Z,69.93
2018-03-04T06:59:18.781Z,68.70
2018-03-04T07:01:47.114Z,66.73
2018-03-04T07:04:15.472Z,67.07
2018-03-04T07:06:44.534Z,68.80
2018-03-04T07:09:12.905Z,67.83
2018-03-04T07:11:41.291Z,67.17
2018-03-04T07:14:09.642Z,66.20
2018-03-04T07:16:38.035Z,72.03
2018-03-04T07:19:06.347Z,64.37
2018-03-04T07:21:34.656Z,67.40
2018-03-04T07:24:03.732Z,67.53
2018-03-04T07:26:32.892Z,67.73
2018-03-04T07:29:01.207Z,66.30
2018-03-04T07:31:29.576Z,65.27
2018-03-04T07:33:57.906Z,65.60
2018-03-04T07:36:26.307Z,65.00
2018-03-04T07:38:54.632Z,68.27
2018-03-04T07:41:22.948Z,64.53
2018-03-04T07:43:52.030Z,64.07
2018-03-04T07:46:21.102Z,64.40
2018-03-04T07:48:49.418Z,65.90
2018-03-04T07:51:18.511Z,64.37
2018-03-04T07:53:47.588Z,63.57
2018-03-04T07:56:15.914Z,64.87
2018-03-04T07:58:45.064Z,63.30
2018-03-04T08:01:13.507Z,64.57
2018-03-04T08:03:43.477Z,63.03
2018-03-04T08:06:11.808Z,66.37
2018-03-04T08:08:40.266Z,67.00
2018-03-04T08:11:09.341Z,62.73
2018-03-04T08:13:37.677Z,61.27
2018-03-04T08:16:06.007Z,60.33
2018-03-04T08:18:34.368Z,62.47
2018-03-04T08:21:02.662Z,61.07
2018-03-04T08:23:31.749Z,64.17
2018-03-04T08:26:17.772Z,62.40
2018-03-04T08:28:46.070Z,60.90
2018-03-04T08:31:14.402Z,61.77
2018-03-04T08:33:42.739Z,63.67
2018-03-04T08:36:11.167Z,61.10
2018-03-04T08:38:40.296Z,62.67
2018-03-04T08:41:08.617Z,61.00
2018-03-04T08:43:36.918Z,60.27
2018-03-04T08:46:05.232Z,62.93
2018-03-04T08:48:33.539Z,60.93
2018-03-04T08:51:03.158Z,65.33
2018-03-04T08:53:31.467Z,59.30
2018-03-04T08:56:00.820Z,60.50
2018-03-04T08:58:29.219Z,59.53
2018-03-04T09:00:57.532Z,60.97
2018-03-04T09:03:25.913Z,62.40
2018-03-04T09:05:54.229Z,62.90
2018-03-04T09:08:23.310Z,62.93
2018-03-04T09:10:52.434Z,58.90
2018-03-04T09:13:21.522Z,60.97
2018-03-04T09:15:50.650Z,62.97
2018-03-04T09:18:19.154Z,62.90
2018-03-04T09:20:47.516Z,61.33
2018-03-04T09:23:15.829Z,58.83
2018-03-04T09:25:44.160Z,62.40
2018-03-04T09:28:13.358Z,61.43
2018-03-04T09:30:42.446Z,60.93
2018-03-04T09:33:10.773Z,61.07
2018-03-04T09:35:39.092Z,61.17
2018-03-04T09:38:08.167Z,55.10
2018-03-04T09:40:36.505Z,59.60
2018-03-04T09:43:04.830Z,52.43
2018-03-04T09:45:33.197Z,55.53
2018-03-04T09:48:01.536Z,53.27
2018-03-04T09:50:30.689Z,52.40
2018-03-04T09:52:59.177Z,54.20
2018-03-04T09:55:28.300Z,53.10
2018-03-04T09:57:56.636Z,52.97
2018-03-04T10:00:25.760Z,53.83
2018-03-04T10:02:54.055Z,54.63
2018-03-04T10:05:23.113Z,51.57
2018-03-04T10:08:00.894Z,52.17
2018-03-04T10:10:29.376Z,52.40
2018-03-04T10:12:57.684Z,49.47
2018-03-04T10:15:26.002Z,50.50
2018-03-04T10:17:55.151Z,49.90
2018-03-04T10:20:23.444Z,49.27
2018-03-04T10:22:51.764Z,49.27
2018-03-04T10:25:20.859Z,47.10
2018-03-04T10:27:50.701Z,48.10
2018-03-04T10:30:19.040Z,46.73
2018-03-04T10:32:47.354Z,48.90
2018-03-04T10:35:16.408Z,47.93
2018-03-04T10:37:44.725Z,44.60
2018-03-04T10:40:13.060Z,42.47
2018-03-04T10:42:41.372Z,42.33
2018-03-04T10:45:10.454Z,41.33
2018-03-04T10:47:38.770Z,38.70
2018-03-04T10:50:07.130Z,35.97
2018-03-04T10:52:35.576Z,45.87
2018-03-04T10:55:04.290Z,52.00
2018-03-04T10:57:32.668Z,41.20
2018-03-04T11:00:01.022Z,40.00
2018-03-04T11:02:34.986Z,43.50
2018-03-04T11:05:03.314Z,35.70
2018-03-04T11:07:31.622Z,37.93
2018-03-04T11:10:00.032Z,38.20
2018-03-04T11:12:28.363Z,37.27
2018-03-04T11:14:56.665Z,38.73
2018-03-04T11:17:25.034Z,38.90
2018-03-04T11:19:53.483Z,40.03
2018-03-04T11:22:21.803Z,40.07
2018-03-04T11:24:50.118Z,39.57
2018-03-04T11:27:18.427Z,43.63
2018-03-04T11:29:46.790Z,39.93
2018-03-04T11:32:15.112Z,39.17
2018-03-04T11:34:43.444Z,42.80
2018-03-04T11:37:11.794Z,41.37
2018-03-04T11:39:40.172Z,39.13
2018-03-04T11:42:08.518Z,38.87
2018-03-04T11:44:37.613Z,39.03
2018-03-04T11:47:07.339Z,38.83
2018-03-04T11:49:35.664Z,42.00
2018-03-04T11:52:03.996Z,39.20
2018-03-04T11:54:32.325Z,39.80
2018-03-04T11:57:00.652Z,38.17
2018-03-04T11:59:29.766Z,49.27
2018-03-04T12:01:58.210Z,49.70
2018-03-04T12:04:26.543Z,47.87
2018-03-04T12:06:54.883Z,51.60
2018-03-04T12:09:23.223Z,48.37
2018-03-04T12:11:51.580Z,49.40
2018-03-04T12:14:19.900Z,49.00
2018-03-04T12:16:48.222Z,47.00
2018-03-04T12:19:17.324Z,48.57
2018-03-04T12:21:46.399Z,47.83
2018-03-04T12:24:15.685Z,49.50
2018-03-04T12:26:43.990Z,50.60
2018-03-04T12:29:13.085Z,46.17
2018-03-04T12:31:43.008Z,48.77
2018-03-04T12:34:12.144Z,47.40
2018-03-04T12:36:40.499Z,47.13
2018-03-04T12:39:08.825Z,47.50
2018-03-04T12:41:37.165Z,45.57
2018-03-04T12:44:06.261Z,44.93
2018-03-04T12:46:35.364Z,46.63
2018-03-04T12:49:03.715Z,48.70
2018-03-04T12:51:33.588Z,47.47
2018-03-04T12:54:01.911Z,46.50
2018-03-04T12:56:31.005Z,47.47
2018-03-04T12:58:59.322Z,44.50
2018-03-04T13:01:28.405Z,47.00
2018-03-04T13:03:57.589Z,45.40
2018-03-04T13:06:25.931Z,44.03
2018-03-04T13:08:54.235Z,44.30
2018-03-04T13:11:22.539Z,44.90
2018-03-04T13:13:51.632Z,45.60
2018-03-04T13:16:21.597Z,43.70
2018-03-04T13:18:49.936Z,43.37
2018-03-04T13:21:18.263Z,43.13
2018-03-04T13:23:46.583Z,42.22
2018-03-04T13:26:14.899Z,42.90
2018-03-04T13:28:44.007Z,41.23
2018-03-04T13:31:12.415Z,42.53
2018-03-04T13:33:41.379Z,41.90
2018-03-04T13:36:09.714Z,41.80
2018-03-04T13:38:38.041Z,42.10
2018-03-04T13:41:07.140Z,40.03
2018-03-04T13:43:36.226Z,39.20
2018-03-04T13:46:04.590Z,41.33
2018-03-04T13:48:32.919Z,39.40
2018-03-04T13:51:01.245Z,39.77
2018-03-04T13:53:29.567Z,39.70
2018-03-04T13:55:58.665Z,40.20
2018-03-04T13:58:27.765Z,38.90
2018-03-04T14:00:56.852Z,40.30
2018-03-04T14:03:25.259Z,37.57
2018-03-04T14:05:53.589Z,39.20
2018-03-04T14:08:21.945Z,37.83
2018-03-04T14:10:50.336Z,38.70
2018-03-04T14:13:18.661Z,36.17
2018-03-04T14:15:47.720Z,36.50
2018-03-04T14:18:16.046Z,36.80
2018-03-04T14:20:45.137Z,36.13
2018-03-04T14:23:14.275Z,37.87
2018-03-04T14:25:42.761Z,36.33
2018-03-04T14:28:11.105Z,61.30
2018-03-04T14:30:39.433Z,39.67
2018-03-04T14:33:07.957Z,36.03
2018-03-04T14:35:36.282Z,34.90
2018-03-04T14:38:04.597Z,34.47
2018-03-04T14:40:32.921Z,31.63
2018-03-04T14:43:02.010Z,36.50
2018-03-04T14:45:30.336Z,33.90
2018-03-04T14:48:04.979Z,33.47
2018-03-04T14:50:34.166Z,34.37
2018-03-04T14:53:05.661Z,33.77
2018-03-04T14:55:34.060Z,34.40
2018-03-04T14:58:05.205Z,33.33
2018-03-04T15:00:34.837Z,36.30
2018-03-04T15:03:03.144Z,34.70
2018-03-04T15:05:31.559Z,34.53
2018-03-04T15:07:59.911Z,33.03
2018-03-04T15:10:28.855Z,32.43
2018-03-04T15:12:57.213Z,33.90
2018-03-04T15:15:25.636Z,33.83
2018-03-04T15:17:53.961Z,32.63
2018-03-04T15:20:22.265Z,52.13
2018-03-04T15:22:50.588Z,45.47
2018-03-04T15:25:18.894Z,39.60
2018-03-04T15:27:47.234Z,34.97
2018-03-04T15:30:15.579Z,33.37
2018-03-04T15:32:43.883Z,31.63
2018-03-04T15:35:13.009Z,29.67
2018-03-04T15:37:41.331Z,31.93
2018-03-04T15:40:09.643Z,29.57
2018-03-04T15:42:38.726Z,30.90
2018-03-04T15:45:11.166Z,34.40
2018-03-04T15:47:42.399Z,29.23
2018-03-04T15:50:13.795Z,26.37
2018-03-04T15:52:45.862Z,26.30
2018-03-04T15:55:21.099Z,27.30
2018-03-04T15:57:51.207Z,25.73
2018-03-04T16:00:23.074Z,25.47
2018-03-04T16:02:55.504Z,24.20
2018-03-04T16:05:25.145Z,24.47
2018-03-04T16:07:55.115Z,25.40
2018-03-04T16:10:25.703Z,23.70
2018-03-04T16:12:55.365Z,23.50
2018-03-04T16:15:28.337Z,23.37
2018-03-04T16:17:57.005Z,24.13
2018-03-04T16:20:26.751Z,23.17
2018-03-04T16:22:59.120Z,21.47
2018-03-04T16:25:33.427Z,21.37
2018-03-04T16:28:04.865Z,22.23
2018-03-04T16:30:34.921Z,22.87
2018-03-04T16:33:04.637Z,22.23
2018-03-04T16:35:33.727Z,31.00
2018-03-04T16:38:02.079Z,28.60
2018-03-04T16:40:30.556Z,24.77
2018-03-04T16:42:58.864Z,26.53
2018-03-04T16:45:29.557Z,27.97
2018-03-04T16:47:58.323Z,30.33
2018-03-04T16:50:26.671Z,32.47
2018-03-04T16:52:55.443Z,54.13
2018-03-04T16:55:25.950Z,44.90
2018-03-04T16:57:57.545Z,66.53
2018-03-04T17:00:28.280Z,28.03
2018-03-04T17:02:56.622Z,26.07
2018-03-04T17:05:25.003Z,24.57
2018-03-04T17:07:54.103Z,24.43
2018-03-04T17:10:22.488Z,25.23
2018-03-04T17:12:51.687Z,30.40
2018-03-04T17:15:20.728Z,29.43
2018-03-04T17:17:49.066Z,23.40
2018-03-04T17:20:17.384Z,24.90
2018-03-04T17:22:45.708Z,26.75
2018-03-04T17:25:14.495Z,22.07
2018-03-04T17:27:42.867Z,36.90
2018-03-04T17:30:12.937Z,35.63
2018-03-04T17:32:42.698Z,26.97
2018-03-04T17:35:13.235Z,25.40
2018-03-04T17:37:41.817Z,23.40
2018-03-04T17:40:11.879Z,19.30
2018-03-04T17:42:40.260Z,31.63
2018-03-04T17:45:09.479Z,35.67
2018-03-04T17:47:41.986Z,26.87
2018-03-04T17:50:11.116Z,23.13
2018-03-04T17:52:39.494Z,19.40
2018-03-04T17:55:07.798Z,20.83
2018-03-04T17:57:36.103Z,20.50
2018-03-04T18:00:04.427Z,20.33
2018-03-04T18:02:33.497Z,21.50
2018-03-04T18:05:01.836Z,19.50
2018-03-04T18:07:30.143Z,21.70
2018-03-04T18:09:58.461Z,23.30
2018-03-04T18:12:26.777Z,55.80
2018-03-04T18:14:55.093Z,36.67
2018-03-04T18:17:23.413Z,37.57
2018-03-04T18:19:52.504Z,51.80
2018-03-04T18:22:21.602Z,30.17
2018-03-04T18:24:49.910Z,66.10
2018-03-04T18:27:18.253Z,35.03
2018-03-04T18:29:47.338Z,33.53
2018-03-04T18:32:15.885Z,23.83
2018-03-04T18:34:44.211Z,22.20
2018-03-04T18:37:12.499Z,21.83
2018-03-04T18:39:41.583Z,23.80
2018-03-04T18:42:09.907Z,22.27
2018-03-04T18:44:38.229Z,22.27
2018-03-04T18:47:06.536Z,23.70
2018-03-04T18:49:35.689Z,24.13
2018-03-04T18:52:04.026Z,22.90
2018-03-04T18:54:33.106Z,25.70
2018-03-04T18:57:01.489Z,25.50
2018-03-04T18:59:30.298Z,24.93
2018-03-04T19:01:58.623Z,25.50
2018-03-04T19:04:26.927Z,25.87
2018-03-04T19:06:55.248Z,26.30
2018-03-04T19:09:24.326Z,26.10
2018-03-04T19:11:52.643Z,26.30
2018-03-04T19:14:21.750Z,25.87
2018-03-04T19:16:50.080Z,26.37
2018-03-04T19:19:18.379Z,28.50
2018-03-04T19:21:48.197Z,26.57
2018-03-04T19:24:17.379Z,29.23
2018-03-04T19:26:45.741Z,27.00
2018-03-04T19:29:14.070Z,26.27
2018-03-04T19:31:43.148Z,24.70
2018-03-04T19:34:12.445Z,24.23
2018-03-04T19:36:42.270Z,25.83
2018-03-04T19:39:10.582Z,25.60
2018-03-04T19:41:39.721Z,25.23
2018-03-04T19:44:12.039Z,26.53
2018-03-04T19:46:45.189Z,25.67
2018-03-04T19:49:18.129Z,27.60
2018-03-04T19:51:46.944Z,27.30
2018-03-04T19:54:18.868Z,28.00
2018-03-04T19:56:47.817Z,27.03
2018-03-04T19:59:17.961Z,27.70
2018-03-04T20:01:48.913Z,27.10
2018-03-04T20:04:19.368Z,28.30
2018-03-04T20:06:48.908Z,29.50
2018-03-04T20:09:19.018Z,26.63
2018-03-04T20:11:48.745Z,28.53
2018-03-04T20:14:18.953Z,30.97
2018-03-04T20:16:48.963Z,30.30
2018-03-04T20:19:20.138Z,32.67
2018-03-04T20:21:48.525Z,31.87
2018-03-04T20:24:16.872Z,30.27
2018-03-04T20:26:45.207Z,30.90
2018-03-04T20:29:13.511Z,30.17
2018-03-04T20:31:42.632Z,33.43
2018-03-04T20:34:11.584Z,32.27
2018-03-04T20:36:39.885Z,32.33
2018-03-04T20:39:08.963Z,32.90
2018-03-04T20:41:37.310Z,33.20
2018-03-04T20:44:05.615Z,31.40
2018-03-04T20:46:33.934Z,32.40
2018-03-04T20:49:03.893Z,26.57
2018-03-04T20:51:32.187Z,28.70
2018-03-04T20:54:00.508Z,29.23
2018-03-04T20:56:29.583Z,27.90
2018-03-04T20:58:57.919Z,26.30
2018-03-04T21:01:26.236Z,28.67
2018-03-04T21:03:54.532Z,28.57
2018-03-04T21:06:22.836Z,30.57
2018-03-04T21:08:51.907Z,32.57
2018-03-04T21:11:20.205Z,32.37
2018-03-04T21:13:49.349Z,33.50
2018-03-04T21:16:18.374Z,33.07
2018-03-04T21:18:46.694Z,32.77
2018-03-04T21:21:15.068Z,33.60
2018-03-04T21:26:18.533Z,35.23
2018-03-04T21:28:46.843Z,35.07
2018-03-04T21:31:15.139Z,35.50
2018-03-04T21:33:43.468Z,34.40
2018-03-04T21:36:11.779Z,38.63
2018-03-04T21:38:40.095Z,36.80
2018-03-04T21:41:09.309Z,38.30
2018-03-04T21:43:37.710Z,38.47
2018-03-04T21:46:06.098Z,38.00
2018-03-04T21:48:34.394Z,38.10
2018-03-04T21:51:02.714Z,36.17
2018-03-04T21:53:31.796Z,38.90
2018-03-04T21:56:00.148Z,39.33
2018-03-04T21:58:28.514Z,39.40
2018-03-04T22:00:56.816Z,39.83
2018-03-04T22:03:25.141Z,40.50
2018-03-04T22:05:54.260Z,39.70
2018-03-04T22:08:22.593Z,36.67
2018-03-04T22:10:51.010Z,37.13
2018-03-04T22:13:20.084Z,39.57
2018-03-04T22:15:48.404Z,34.80
2018-03-04T22:18:16.736Z,36.70
2018-03-04T22:20:45.848Z,34.40
2018-03-04T22:23:14.946Z,37.50
2018-03-04T22:25:43.300Z,35.80
2018-03-04T22:28:11.618Z,35.40
2018-03-04T22:30:40.689Z,37.03
2018-03-04T22:33:09.130Z,36.73
2018-03-04T22:35:37.458Z,36.53
2018-03-04T22:38:05.795Z,40.27
2018-03-04T22:40:34.100Z,39.00
2018-03-04T22:43:02.419Z,40.90
2018-03-04T22:45:31.502Z,40.03
2018-03-04T22:48:00.580Z,37.30
2018-03-04T22:50:28.890Z,38.90
2018-03-04T22:52:57.982Z,41.27
2018-03-04T22:55:26.289Z,40.50
2018-03-04T22:57:55.395Z,39.60
2018-03-04T23:00:23.730Z,38.60
2018-03-04T23:02:52.089Z,35.80
2018-03-04T23:05:21.126Z,37.60
2018-03-04T23:07:49.456Z,42.13
2018-03-04T23:10:17.775Z,42.97
2018-03-04T23:12:46.100Z,172.63
2018-03-04T23:15:14.426Z,46.30
2018-03-04T23:17:43.069Z,45.00
2018-03-04T23:20:11.400Z,45.70
2018-03-04T23:22:39.720Z,45.40
2018-03-04T23:25:08.821Z,48.23
2018-03-04T23:27:37.923Z,47.70
2018-03-04T23:30:06.250Z,45.70
2018-03-04T23:32:34.554Z,43.20
2018-03-04T23:35:02.868Z,44.47
2018-03-04T23:37:31.191Z,45.47
2018-03-04T23:39:59.635Z,42.30
2018-03-04T23:42:28.653Z,43.63
2018-03-04T23:44:57.005Z,42.20
2018-03-04T23:47:26.077Z,43.60
2018-03-04T23:49:54.393Z,41.50
2018-03-04T23:52:22.730Z,44.37
2018-03-04T23:54:51.014Z,42.47
2018-03-04T23:57:19.355Z,43.77
2018-03-04T23:59:47.675Z,46.47
